createdAt,value
2018-04-30T00:00:02.518Z,48.15
2018-04-30T00:02:31.166Z,47.76
2018-04-30T00:05:00.932Z,47.58
2018-04-30T00:07:30.216Z,47.61
2018-04-30T00:10:01.717Z,47.75
2018-04-30T00:12:33.510Z,47.67
2018-04-30T00:15:02.185Z,47.52
2018-04-30T00:17:31.719Z,47.40
2018-04-30T00:20:01.132Z,47.37
2018-04-30T00:22:32.000Z,47.24
2018-04-30T00:25:01.815Z,47.04
2018-04-30T00:27:30.827Z,46.82
2018-04-30T00:30:01.302Z,46.74
2018-04-30T00:32:31.046Z,46.65
2018-04-30T00:35:01.525Z,46.95
2018-04-30T00:37:34.059Z,46.85
2018-04-30T00:40:05.275Z,46.91
2018-04-30T00:42:33.912Z,46.81
2018-04-30T00:45:03.933Z,46.67
2018-04-30T00:47:34.016Z,46.71
2018-04-30T00:50:01.837Z,46.67
2018-04-30T00:52:30.219Z,46.61
2018-04-30T00:54:59.794Z,46.56
2018-04-30T00:57:28.148Z,46.52
2018-04-30T00:59:59.081Z,46.69
2018-04-30T01:02:30.232Z,46.81
2018-04-30T01:04:57.868Z,46.50
2018-04-30T01:07:29.843Z,46.07
2018-04-30T01:10:00.192Z,46.38
2018-04-30T01:12:33.086Z,46.52
2018-04-30T01:15:01.892Z,46.63
2018-04-30T01:17:34.689Z,46.52
2018-04-30T01:20:04.823Z,46.76
2018-04-30T01:22:37.971Z,46.57
2018-04-30T01:25:09.072Z,46.50
2018-04-30T01:27:39.907Z,46.54
2018-04-30T01:30:11.171Z,46.57
2018-04-30T01:32:43.269Z,46.52
2018-04-30T01:35:16.008Z,47.02
2018-04-30T01:37:43.886Z,46.80
2018-04-30T01:40:16.513Z,46.81
2018-04-30T01:42:45.165Z,46.80
2018-04-30T01:45:14.540Z,46.71
2018-04-30T01:47:43.433Z,46.75
2018-04-30T01:50:14.741Z,46.95
2018-04-30T01:52:45.916Z,47.07
2018-04-30T01:55:15.231Z,47.22
2018-04-30T01:57:45.062Z,47.01
2018-04-30T02:00:14.579Z,46.97
2018-04-30T02:02:46.058Z,47.01
2018-04-30T02:05:14.993Z,47.21
2018-04-30T02:07:43.733Z,47.30
2018-04-30T02:10:13.507Z,47.24
2018-04-30T02:12:43.130Z,47.14
2018-04-30T02:15:14.538Z,47.31
2018-04-30T02:17:45.485Z,47.35
2018-04-30T02:20:19.948Z,47.33
2018-04-30T02:22:50.044Z,47.20
2018-04-30T02:25:19.837Z,47.20
2018-04-30T02:27:49.402Z,47.19
2018-04-30T02:30:21.728Z,47.42
2018-04-30T02:32:49.075Z,47.17
2018-04-30T02:35:19.269Z,47.34
2018-04-30T02:37:48.637Z,47.46
2018-04-30T02:40:22.811Z,47.79
2018-04-30T02:42:57.161Z,47.72
2018-04-30T02:45:27.432Z,47.71
2018-04-30T02:47:56.331Z,47.63
2018-04-30T02:50:28.879Z,47.70
2018-04-30T02:52:59.285Z,47.75
2018-04-30T02:55:30.759Z,47.78
2018-04-30T02:58:00.077Z,47.99
2018-04-30T03:00:29.896Z,48.32
2018-04-30T03:03:06.039Z,48.98
2018-04-30T03:05:32.892Z,49.81
2018-04-30T03:08:01.305Z,50.13
2018-04-30T03:10:32.042Z,48.74
2018-04-30T03:12:59.993Z,50.33
2018-04-30T03:15:32.082Z,51.03
2018-04-30T03:18:00.930Z,51.46
2018-04-30T03:20:32.504Z,51.80
2018-04-30T03:23:00.819Z,52.02
2018-04-30T03:25:29.455Z,52.39
2018-04-30T03:28:01.648Z,52.52
2018-04-30T03:30:30.554Z,52.60
2018-04-30T03:33:01.812Z,52.52
2018-04-30T03:35:30.148Z,52.68
2018-04-30T03:38:00.185Z,52.75
2018-04-30T03:40:29.204Z,52.57
2018-04-30T03:42:59.772Z,52.59
2018-04-30T03:45:32.014Z,52.72
2018-04-30T03:48:00.480Z,52.67
2018-04-30T03:50:32.317Z,52.79
2018-04-30T03:53:02.179Z,52.83
2018-04-30T03:55:30.269Z,52.85
2018-04-30T03:58:00.061Z,53.04
2018-04-30T04:00:41.400Z,53.32
2018-04-30T04:03:24.681Z,53.51
2018-04-30T04:06:04.909Z,53.13
2018-04-30T04:08:33.508Z,53.19
2018-04-30T04:11:04.930Z,53.23
2018-04-30T04:13:37.489Z,53.31
2018-04-30T04:16:08.954Z,53.69
2018-04-30T04:18:46.662Z,53.42
2018-04-30T04:21:18.020Z,53.27
2018-04-30T04:23:57.031Z,53.47
2018-04-30T04:26:26.588Z,53.61
2018-04-30T04:28:57.151Z,53.42
2018-04-30T04:31:43.391Z,53.03
2018-04-30T04:34:17.489Z,52.92
2018-04-30T04:36:45.844Z,52.84
2018-04-30T04:39:14.389Z,51.71
2018-04-30T04:41:44.607Z,51.26
2018-04-30T04:44:17.286Z,51.09
2018-04-30T04:46:48.145Z,50.68
2018-04-30T04:49:16.527Z,49.85
2018-04-30T04:51:48.509Z,49.63
2018-04-30T04:54:17.704Z,50.18
2018-04-30T04:56:48.965Z,50.75
2018-04-30T04:59:15.459Z,51.15
2018-04-30T05:01:41.998Z,50.90
2018-04-30T05:04:08.736Z,51.58
2018-04-30T05:06:35.152Z,51.38
2018-04-30T05:09:01.756Z,50.87
2018-04-30T05:11:28.330Z,50.45
2018-04-30T05:13:54.830Z,51.13
2018-04-30T05:16:21.420Z,51.58
2018-04-30T05:18:47.977Z,51.69
2018-04-30T05:21:14.509Z,50.90
2018-04-30T05:23:41.148Z,49.90
2018-04-30T05:26:07.661Z,49.90
2018-04-30T05:28:34.059Z,48.85
2018-04-30T05:31:00.559Z,48.98
2018-04-30T05:33:26.982Z,48.57
2018-04-30T05:35:53.617Z,48.67
2018-04-30T05:38:20.082Z,48.81
2018-04-30T05:40:46.486Z,48.26
2018-04-30T05:43:12.960Z,47.91
2018-04-30T05:45:39.400Z,47.73
2018-04-30T05:48:05.975Z,47.45
2018-04-30T05:50:32.385Z,47.42
2018-04-30T05:52:58.952Z,47.37
2018-04-30T05:55:25.441Z,47.49
2018-04-30T05:57:52.024Z,47.80
2018-04-30T06:00:18.620Z,47.31
2018-04-30T06:02:45.210Z,47.04
2018-04-30T06:05:11.663Z,47.11
2018-04-30T06:10:11.249Z,46.89
2018-04-30T06:12:37.801Z,46.74
2018-04-30T06:15:04.215Z,46.71
2018-04-30T06:17:30.822Z,46.41
2018-04-30T06:19:57.520Z,46.61
2018-04-30T06:22:24.066Z,46.75
2018-04-30T06:24:50.506Z,46.83
2018-04-30T06:27:16.977Z,46.84
2018-04-30T06:29:43.458Z,47.22
2018-04-30T06:32:09.970Z,46.98
2018-04-30T06:34:36.512Z,47.00
2018-04-30T06:37:03.117Z,46.97
2018-04-30T06:39:29.488Z,46.75
2018-04-30T06:41:55.921Z,46.79
2018-04-30T06:44:22.373Z,45.22
2018-04-30T06:46:48.907Z,44.93
2018-04-30T06:49:15.411Z,44.79
2018-04-30T06:51:41.855Z,44.65
2018-04-30T06:54:08.361Z,44.73
2018-04-30T06:56:34.767Z,44.67
2018-04-30T06:59:01.185Z,44.65
2018-04-30T07:01:27.783Z,44.44
2018-04-30T07:03:54.259Z,44.50
2018-04-30T07:06:20.769Z,44.58
2018-04-30T07:08:47.344Z,44.57
2018-04-30T07:11:13.699Z,44.17
2018-04-30T07:13:40.392Z,44.32
2018-04-30T07:16:06.750Z,44.54
2018-04-30T07:18:33.260Z,44.33
2018-04-30T07:20:59.646Z,43.86
2018-04-30T07:23:26.038Z,43.57
2018-04-30T07:25:52.712Z,43.52
2018-04-30T07:28:19.102Z,43.15
2018-04-30T07:30:45.478Z,43.12
2018-04-30T07:33:12.019Z,43.00
2018-04-30T07:35:38.417Z,43.47
2018-04-30T07:38:05.077Z,43.38
2018-04-30T07:40:31.501Z,43.54
2018-04-30T07:42:58.057Z,43.76
2018-04-30T07:45:24.497Z,43.78
2018-04-30T07:47:50.954Z,43.20
2018-04-30T07:50:17.505Z,43.11
2018-04-30T07:52:43.945Z,43.17
2018-04-30T07:55:10.330Z,43.06
2018-04-30T07:57:36.685Z,43.22
2018-04-30T08:00:03.292Z,43.19
2018-04-30T08:02:29.792Z,43.12
2018-04-30T08:04:56.267Z,43.59
2018-04-30T08:07:22.761Z,43.18
2018-04-30T08:09:49.344Z,43.50
2018-04-30T08:12:15.760Z,43.32
2018-04-30T08:14:42.150Z,42.74
2018-04-30T08:17:08.588Z,42.51
2018-04-30T08:19:35.009Z,42.40
2018-04-30T08:22:01.510Z,42.64
2018-04-30T08:24:27.920Z,42.77
2018-04-30T08:26:54.515Z,42.63
2018-04-30T08:29:21.122Z,42.39
2018-04-30T08:31:47.543Z,42.05
2018-04-30T08:34:14.045Z,41.92
2018-04-30T08:36:40.516Z,41.85
2018-04-30T08:39:07.248Z,42.10
2018-04-30T08:41:33.617Z,42.01
2018-04-30T08:44:00.173Z,42.50
2018-04-30T08:46:26.604Z,42.49
2018-04-30T08:48:53.113Z,42.29
2018-04-30T08:51:19.621Z,42.57
2018-04-30T08:53:46.105Z,41.61
2018-04-30T08:56:12.660Z,41.67
2018-04-30T08:58:39.163Z,41.86
2018-04-30T09:01:05.604Z,40.89
2018-04-30T09:03:32.292Z,40.79
2018-04-30T09:05:58.841Z,41.22
2018-04-30T09:08:25.216Z,41.28
2018-04-30T09:10:51.794Z,41.19
2018-04-30T09:13:18.292Z,40.61
2018-04-30T09:15:44.835Z,40.84
2018-04-30T09:18:11.233Z,40.93
2018-04-30T09:20:37.765Z,40.35
2018-04-30T09:23:04.300Z,40.42
2018-04-30T09:25:30.863Z,40.16
2018-04-30T09:27:57.439Z,40.55
2018-04-30T09:30:24.008Z,39.74
2018-04-30T09:32:50.462Z,40.03
2018-04-30T09:35:16.950Z,40.05
2018-04-30T09:37:43.635Z,40.47
2018-04-30T09:40:10.180Z,40.72
2018-04-30T09:42:36.825Z,40.37
2018-04-30T09:45:03.295Z,40.28
2018-04-30T09:47:29.652Z,40.33
2018-04-30T09:49:56.158Z,40.43
2018-04-30T09:52:22.645Z,40.33
2018-04-30T09:54:49.244Z,40.11
2018-04-30T09:57:15.719Z,39.79
2018-04-30T09:59:42.044Z,39.63
2018-04-30T10:02:08.521Z,39.56
2018-04-30T10:04:35.096Z,39.77
2018-04-30T10:07:01.576Z,39.91
2018-04-30T10:09:28.158Z,39.88
2018-04-30T10:11:54.668Z,40.11
2018-04-30T10:14:21.000Z,39.59
2018-04-30T10:16:47.521Z,39.51
2018-04-30T10:25:48.470Z,39.15
2018-04-30T10:28:14.826Z,39.17
2018-04-30T10:30:41.368Z,38.41
2018-04-30T10:33:07.869Z,38.48
2018-04-30T10:35:34.457Z,38.45
2018-04-30T10:38:00.928Z,37.77
2018-04-30T10:40:27.267Z,37.87
2018-04-30T10:42:53.788Z,37.96
2018-04-30T10:45:20.172Z,38.21
2018-04-30T10:47:46.655Z,38.73
2018-04-30T10:50:13.113Z,38.94
2018-04-30T10:52:39.659Z,38.62
2018-04-30T10:55:06.240Z,38.88
2018-04-30T10:57:32.735Z,38.79
2018-04-30T10:59:59.130Z,38.81
2018-04-30T11:02:25.536Z,38.85
2018-04-30T11:07:32.938Z,38.43
2018-04-30T11:09:59.366Z,38.36
2018-04-30T11:12:25.771Z,38.38
2018-04-30T11:14:52.216Z,38.39
2018-04-30T11:17:18.671Z,37.84
2018-04-30T11:19:45.221Z,38.09
2018-04-30T11:22:11.599Z,38.05
2018-04-30T11:24:37.936Z,37.84
2018-04-30T11:27:04.342Z,37.94
2018-04-30T11:29:30.711Z,38.04
2018-04-30T11:31:57.415Z,37.42
2018-04-30T11:34:23.828Z,37.53
2018-04-30T11:36:50.190Z,37.48
2018-04-30T11:39:16.661Z,35.90
2018-04-30T11:41:43.126Z,35.83
2018-04-30T11:44:09.651Z,35.62
2018-04-30T11:46:36.234Z,36.03
2018-04-30T11:49:02.720Z,36.09
2018-04-30T11:51:29.172Z,36.07
2018-04-30T11:53:55.780Z,35.45
2018-04-30T11:56:22.205Z,35.67
2018-04-30T11:58:48.723Z,35.39
2018-04-30T12:01:15.098Z,34.92
2018-04-30T12:03:41.499Z,34.85
2018-04-30T12:06:07.919Z,35.16
2018-04-30T12:08:34.288Z,34.86
2018-04-30T12:11:00.759Z,35.54
2018-04-30T12:13:27.091Z,35.07
2018-04-30T12:15:53.602Z,34.86
2018-04-30T12:18:20.286Z,33.75
2018-04-30T12:20:46.926Z,33.04
2018-04-30T12:23:13.263Z,33.24
2018-04-30T12:25:39.760Z,33.37
2018-04-30T12:28:06.158Z,33.39
2018-04-30T12:30:32.792Z,32.95
2018-04-30T12:32:59.292Z,33.07
2018-04-30T12:35:25.752Z,33.54
2018-04-30T12:37:52.381Z,33.33
2018-04-30T12:40:18.790Z,33.43
2018-04-30T12:42:45.248Z,33.65
2018-04-30T12:45:11.696Z,33.84
2018-04-30T12:47:38.077Z,33.85
2018-04-30T12:50:04.492Z,33.92
2018-04-30T12:52:30.943Z,33.63
2018-04-30T12:54:57.466Z,33.96
2018-04-30T12:57:24.012Z,34.17
2018-04-30T12:59:50.536Z,34.41
2018-04-30T13:02:17.061Z,34.33
2018-04-30T13:04:43.496Z,34.52
2018-04-30T13:07:09.969Z,34.88
2018-04-30T13:09:36.491Z,34.68
2018-04-30T13:12:03.004Z,35.04
2018-04-30T13:14:29.541Z,35.33
2018-04-30T13:16:56.008Z,35.40
2018-04-30T13:19:22.487Z,35.56
2018-04-30T13:21:48.992Z,35.36
2018-04-30T13:24:15.342Z,35.15
2018-04-30T13:26:41.936Z,35.58
2018-04-30T13:29:08.257Z,35.54
2018-04-30T13:31:34.795Z,35.58
2018-04-30T13:34:01.513Z,35.86
2018-04-30T13:36:28.083Z,35.77
2018-04-30T13:38:54.648Z,35.99
2018-04-30T13:41:21.087Z,36.13
2018-04-30T13:43:47.583Z,36.20
2018-04-30T13:46:14.129Z,36.36
2018-04-30T13:48:40.656Z,36.33
2018-04-30T13:51:07.076Z,36.14
2018-04-30T13:53:33.424Z,35.95
2018-04-30T13:55:59.920Z,35.82
2018-04-30T13:58:26.468Z,35.92
2018-04-30T14:00:52.861Z,35.86
2018-04-30T14:03:19.193Z,35.76
2018-04-30T14:05:45.635Z,35.96
2018-04-30T14:08:12.044Z,36.23
2018-04-30T14:10:38.603Z,36.50
2018-04-30T14:13:05.103Z,36.73
2018-04-30T14:15:31.407Z,37.19
2018-04-30T14:17:57.776Z,37.36
2018-04-30T14:20:24.351Z,37.47
2018-04-30T14:22:50.668Z,37.61
2018-04-30T14:25:17.270Z,37.91
2018-04-30T14:27:43.749Z,38.05
2018-04-30T14:30:10.220Z,38.08
2018-04-30T14:32:36.633Z,38.25
2018-04-30T14:35:03.193Z,38.48
2018-04-30T14:37:29.612Z,38.57
2018-04-30T14:39:56.112Z,38.54
2018-04-30T14:42:22.578Z,38.69
2018-04-30T14:44:48.964Z,38.69
2018-04-30T14:47:15.617Z,38.63
2018-04-30T14:49:42.017Z,38.51
2018-04-30T14:52:08.472Z,38.75
2018-04-30T14:54:34.845Z,38.83
2018-04-30T14:57:01.237Z,38.87
2018-04-30T14:59:27.720Z,38.89
2018-04-30T15:01:54.160Z,39.03
2018-04-30T15:04:20.632Z,39.07
2018-04-30T15:06:47.116Z,39.12
2018-04-30T15:09:13.575Z,39.16
2018-04-30T15:11:40.037Z,39.27
2018-04-30T15:14:06.403Z,39.35
2018-04-30T15:16:32.848Z,39.44
2018-04-30T15:18:59.224Z,39.51
2018-04-30T15:24:17.785Z,39.60
2018-04-30T15:26:44.272Z,39.50
2018-04-30T15:29:10.824Z,39.55
2018-04-30T15:31:37.383Z,39.40
2018-04-30T15:34:03.863Z,39.93
2018-04-30T15:36:30.276Z,40.00
2018-04-30T15:38:56.742Z,39.73
2018-04-30T15:41:23.257Z,39.95
2018-04-30T15:46:21.791Z,39.94
2018-04-30T15:48:48.304Z,39.87
2018-04-30T15:51:14.666Z,39.81
2018-04-30T15:53:41.215Z,40.09
2018-04-30T15:56:07.672Z,40.64
2018-04-30T15:58:33.999Z,40.75
2018-04-30T16:01:00.347Z,40.66
2018-04-30T16:03:26.885Z,40.74
2018-04-30T16:05:53.284Z,40.61
2018-04-30T16:08:19.736Z,40.85
2018-04-30T16:10:46.136Z,40.86
2018-04-30T16:13:12.622Z,40.57
2018-04-30T16:15:39.329Z,40.09
2018-04-30T16:18:05.794Z,39.93
2018-04-30T16:20:32.215Z,40.01
2018-04-30T16:22:58.633Z,39.69
2018-04-30T16:25:25.001Z,39.98
2018-04-30T16:27:51.473Z,40.31
2018-04-30T16:30:17.928Z,40.46
2018-04-30T16:32:44.417Z,40.57
2018-04-30T16:35:10.899Z,40.73
2018-04-30T16:37:37.446Z,40.88
2018-04-30T16:40:03.961Z,41.04
2018-04-30T16:42:30.500Z,41.26
2018-04-30T16:44:57.048Z,41.67
2018-04-30T16:47:23.468Z,41.71
2018-04-30T16:49:49.906Z,42.47
2018-04-30T16:52:16.436Z,43.51
2018-04-30T16:54:42.852Z,43.24
2018-04-30T16:57:09.353Z,43.02
2018-04-30T16:59:35.879Z,43.08
2018-04-30T17:02:02.369Z,43.69
2018-04-30T17:04:28.909Z,43.27
2018-04-30T17:06:55.372Z,42.68
2018-04-30T17:09:21.707Z,43.38
2018-04-30T17:11:48.037Z,44.03
2018-04-30T17:14:14.374Z,44.26
2018-04-30T17:16:40.840Z,44.05
2018-04-30T17:19:07.381Z,43.91
2018-04-30T17:21:33.866Z,43.36
2018-04-30T17:24:00.236Z,43.12
2018-04-30T17:26:26.544Z,43.71
2018-04-30T17:28:52.940Z,43.68
2018-04-30T17:31:19.324Z,43.38
2018-04-30T17:33:45.654Z,44.19
2018-04-30T17:36:12.087Z,44.07
2018-04-30T17:38:38.448Z,44.18
2018-04-30T17:41:04.943Z,44.28
2018-04-30T17:43:31.405Z,44.36
2018-04-30T17:45:57.986Z,44.64
2018-04-30T17:48:24.393Z,44.67
2018-04-30T17:50:50.847Z,44.88
2018-04-30T17:53:17.321Z,44.96
2018-04-30T17:55:43.764Z,44.77
2018-04-30T17:58:10.132Z,44.57
2018-04-30T18:00:36.499Z,44.38
2018-04-30T18:03:02.828Z,44.77
2018-04-30T18:11:38.296Z,44.89
2018-04-30T18:14:05.025Z,45.31
2018-04-30T18:16:31.449Z,45.42
2018-04-30T18:18:57.833Z,45.55
2018-04-30T18:21:24.341Z,45.74
2018-04-30T18:23:51.246Z,45.59
2018-04-30T18:26:18.289Z,45.37
2018-04-30T18:28:44.904Z,45.48
2018-04-30T18:31:11.471Z,45.55
2018-04-30T18:36:51.770Z,45.67
2018-04-30T18:39:18.340Z,45.39
2018-04-30T18:41:44.779Z,45.14
2018-04-30T18:44:12.423Z,45.36
2018-04-30T18:46:39.083Z,45.50
2018-04-30T18:49:05.945Z,45.27
2018-04-30T18:51:32.749Z,45.15
2018-04-30T18:53:59.314Z,45.03
2018-04-30T18:56:26.016Z,45.18
2018-04-30T18:58:52.448Z,45.14
2018-04-30T19:01:18.917Z,45.20
2018-04-30T19:03:45.366Z,45.30
2018-04-30T19:06:11.755Z,45.33
2018-04-30T19:08:38.039Z,45.50
2018-04-30T19:11:04.548Z,45.54
2018-04-30T19:13:31.005Z,45.62
2018-04-30T19:15:57.539Z,45.60
2018-04-30T19:18:23.883Z,45.63
2018-04-30T19:20:50.246Z,45.67
2018-04-30T19:23:16.648Z,45.71
2018-04-30T19:25:43.063Z,45.65
2018-04-30T19:28:09.433Z,45.85
2018-04-30T19:30:35.975Z,45.74
2018-04-30T19:33:02.363Z,45.69
2018-04-30T19:35:28.773Z,45.70
2018-04-30T19:37:55.126Z,45.66
2018-04-30T19:40:21.572Z,45.69
2018-04-30T19:42:48.058Z,45.72
2018-04-30T19:45:14.701Z,45.68
2018-04-30T19:47:41.082Z,45.80
2018-04-30T19:50:07.467Z,45.84
2018-04-30T19:52:33.798Z,46.21
2018-04-30T19:55:00.141Z,46.21
2018-04-30T19:57:26.580Z,45.96
2018-04-30T19:59:52.931Z,46.14
2018-04-30T20:02:19.426Z,46.40
2018-04-30T20:04:45.784Z,46.39
2018-04-30T20:07:12.240Z,46.44
2018-04-30T20:09:38.643Z,46.36
2018-04-30T20:12:05.153Z,46.58
2018-04-30T20:14:31.689Z,47.11
2018-04-30T20:16:58.129Z,48.30
2018-04-30T20:19:24.695Z,48.75
2018-04-30T20:21:51.116Z,48.87
2018-04-30T20:24:17.488Z,48.99
2018-04-30T20:26:43.823Z,49.22
2018-04-30T20:29:10.253Z,49.76
2018-04-30T20:31:36.637Z,50.05
2018-04-30T20:34:03.145Z,50.29
2018-04-30T20:36:29.606Z,50.57
2018-04-30T20:38:56.008Z,50.84
2018-04-30T20:41:22.484Z,51.01
2018-04-30T20:43:48.847Z,51.16
2018-04-30T20:46:15.319Z,51.55
2018-04-30T20:48:41.647Z,51.86
2018-04-30T20:51:08.008Z,52.09
2018-04-30T20:53:34.343Z,52.24
2018-04-30T20:56:00.884Z,52.29
2018-04-30T20:58:27.324Z,52.28
2018-04-30T21:00:53.766Z,52.37
2018-04-30T21:03:20.069Z,52.47
2018-04-30T21:05:46.429Z,52.61
2018-04-30T21:08:12.789Z,52.76
2018-04-30T21:10:39.291Z,52.91
2018-04-30T21:13:05.644Z,52.99
2018-04-30T21:15:32.112Z,53.04
2018-04-30T21:17:58.515Z,53.01
2018-04-30T21:20:24.860Z,53.11
2018-04-30T21:22:51.351Z,53.16
2018-04-30T21:25:17.811Z,56.74
2018-04-30T21:27:44.227Z,53.14
2018-04-30T21:30:10.917Z,52.36
2018-04-30T21:32:37.264Z,52.25
2018-04-30T21:35:03.756Z,52.44
2018-04-30T21:37:30.108Z,52.17
2018-04-30T21:39:56.611Z,52.57
2018-04-30T21:42:23.140Z,52.70
2018-04-30T21:44:49.585Z,52.73
2018-04-30T21:47:15.967Z,52.71
2018-04-30T21:49:42.356Z,52.64
2018-04-30T21:52:08.829Z,52.54
2018-04-30T21:54:35.330Z,52.81
2018-04-30T21:57:01.757Z,52.88
2018-04-30T21:59:28.244Z,52.97
2018-04-30T22:01:54.638Z,53.23
2018-04-30T22:04:21.122Z,53.26
2018-04-30T22:06:47.590Z,53.27
2018-04-30T22:09:14.120Z,53.27
2018-04-30T22:11:40.516Z,53.29
2018-04-30T22:14:07.012Z,53.23
2018-04-30T22:16:33.568Z,53.59
2018-04-30T22:18:59.911Z,53.46
2018-04-30T22:21:26.460Z,53.77
2018-04-30T22:23:52.835Z,54.03
2018-04-30T22:26:19.291Z,54.23
2018-04-30T22:28:45.758Z,54.22
2018-04-30T22:31:12.340Z,54.11
2018-04-30T22:33:38.808Z,54.38
2018-04-30T22:36:05.328Z,54.49
2018-04-30T22:38:31.756Z,54.56
2018-04-30T22:40:58.461Z,54.63
2018-04-30T22:43:24.977Z,54.82
2018-04-30T22:45:51.500Z,54.79
2018-04-30T22:48:17.972Z,54.96
2018-04-30T22:50:44.584Z,55.17
2018-04-30T22:53:11.037Z,55.42
2018-04-30T22:55:37.552Z,55.50
2018-04-30T22:58:03.970Z,55.34
2018-04-30T23:00:30.378Z,55.26
2018-04-30T23:02:56.999Z,55.28
2018-04-30T23:05:23.540Z,55.23
2018-04-30T23:07:50.009Z,55.22
2018-04-30T23:10:16.671Z,55.22
2018-04-30T23:12:43.255Z,55.43
2018-04-30T23:15:09.722Z,55.50
2018-04-30T23:17:36.323Z,55.74
2018-04-30T23:20:02.900Z,55.81
2018-04-30T23:22:37.672Z,55.79
2018-04-30T23:25:04.189Z,55.69
2018-04-30T23:27:30.659Z,55.57
2018-04-30T23:29:57.191Z,55.59
2018-04-30T23:32:23.688Z,55.55
2018-04-30T23:34:50.232Z,55.23
2018-04-30T23:37:16.699Z,55.21
2018-04-30T23:39:43.136Z,55.35
2018-04-30T23:42:09.572Z,55.59
2018-04-30T23:44:36.004Z,55.71
2018-04-30T23:47:02.508Z,55.98
2018-04-30T23:49:28.912Z,56.13
2018-04-30T23:51:55.411Z,56.18
2018-04-30T23:54:21.902Z,56.26
2018-04-30T23:56:48.467Z,56.24
2018-04-30T23:59:14.990Z,56.24
